F/V Roger Christian3 — FUFL — position and weather

sailwx.info

Track history (hours):
 
Tides and Currents Weather Stations Pressure Air Temp Water Temp Dewpoint Dewpoint Depression Visibility Wind Speed Wind Dir Waves Ship Positions

F/V Roger Christian3

Last reported at 2015-Mar-03 12:31 UTC. Time now 2015-Mar-03 12:47 UTC.
Position N 43°24' E 003°42'.

Length 24 m; draft 4 m.

Type: Fishing. MMSI: 228173800.

Date/timePositionNaut miles runAvg speedWind from/ knotsBaromVisibWave heightAir tempDewpointWater temp
2015-Mar-03 12:31N 43°24' E 003°42'0 0.0
2015-Mar-03 11:26N 43°24' E 003°42'0 0.0
2015-Mar-03 09:25N 43°24' E 003°42'0 0.0
2015-Mar-03 08:18N 43°24' E 003°42'0 0.0
2015-Mar-02 18:17N 43°24' E 003°42'0 0.0
2015-Mar-02 07:16N 43°24' E 003°42'0 0.0
2015-Mar-02 06:25N 43°24' E 003°42'  
2015-Feb-27 16:28N 43°24' E 003°42'10 4.2
2015-Feb-27 14:13N 43°15' E 003°45'3 3.9
2015-Feb-27 13:28N 43°14' E 003°48'5 4.2
2015-Feb-27 12:13N 43°16' E 003°55'2 2.1
2015-Feb-27 11:26N 43°16' E 003°57'3 3.5
2015-Feb-27 10:28N 43°17' E 003°53'4 3.6
2015-Feb-27 09:28N 43°19' E 003°57'5 4.4
2015-Feb-27 08:26N 43°19' E 004°03'2 2.3
2015-Feb-27 07:28N 43°20' E 004°06'5 4.0
2015-Feb-27 06:14N 43°22' E 003°60'13 1.0
2015-Feb-26 17:11N 43°24' E 003°42'0 0.1
2015-Feb-26 16:12N 43°24' E 003°42'3 4.6
2015-Feb-26 15:32N 43°21' E 003°43'8 5.9
2015-Feb-26 14:10N 43°14' E 003°49'3 4.3
2015-Feb-26 13:22N 43°14' E 003°53'4 4.3
2015-Feb-26 12:25N 43°17' E 003°57'4 3.8
2015-Feb-26 11:19N 43°19' E 004°02'8 3.6
2015-Feb-26 09:07N 43°15' E 004°11'3 4.5
2015-Feb-26 08:24N 43°15' E 004°16'2 2.3
2015-Feb-26 07:24N 43°14' E 004°19'4 4.0
2015-Feb-26 06:21N 43°17' E 004°14'24 1.8
2015-Feb-25 16:26N 43°24' E 003°42'3 2.8
2015-Feb-25 15:25N 43°21' E 003°43'6 6.2
2015-Feb-25 14:23N 43°15' E 003°47'3 3.2
2015-Feb-25 13:19N 43°17' E 003°51'4 4.2
2015-Feb-25 12:16N 43°19' E 003°56'3 4.4
2015-Feb-25 11:33N 43°20' E 004°00'3 3.0
2015-Feb-25 10:25N 43°18' E 004°05'6 4.7
2015-Feb-25 09:13N 43°15' E 004°11'3 3.9
2015-Feb-25 08:21N 43°14' E 004°15'27 1.8
2015-Feb-24 17:25N 43°24' E 003°42'0 0.1
2015-Feb-24 16:28N 43°24' E 003°42'5 5.0
2015-Feb-24 15:28N 43°20' E 003°46'9 4.4
2015-Feb-24 13:24N 43°12' E 003°53'3 4.1
2015-Feb-24 12:33N 43°10' E 003°57'4 4.2
2015-Feb-24 11:33N 43°08' E 004°02'2 1.5
2015-Feb-24 10:30N 43°09' E 004°04'4 4.3
2015-Feb-24 09:29N 43°08' E 004°10'4 4.2
2015-Feb-24 08:29N 43°07' E 004°15'2 1.7
2015-Feb-24 07:29N 43°07' E 004°17'4 3.8
2015-Feb-24 06:29N 43°08' E 004°12'4 4.3
2015-Feb-24 05:29N 43°09' E 004°07'4 4.3
2015-Feb-24 04:29N 43°10' E 004°01'4 4.4
2015-Feb-24 03:33N 43°12' E 003°56'10 9.2
2015-Feb-24 02:31N 43°19' E 003°47'7 6.1
2015-Feb-24 01:28N 43°24' E 003°42'0 0.0
2015-Feb-24 00:09N 43°24' E 003°42'0 0.0
2015-Feb-23 23:27N 43°24' E 003°42'0 0.0
2015-Feb-23 22:12N 43°24' E 003°42'0 0.0
2015-Feb-23 21:28N 43°24' E 003°42'0 0.0
2015-Feb-23 16:04N 43°24' E 003°42'0 0.6
2015-Feb-23 15:33N 43°24' E 003°42'0 0.3
2015-Feb-23 14:11N 43°24' E 003°42'8 9.6
2015-Feb-23 13:20N 43°16' E 003°46'1011.1
2015-Feb-23 12:28N 43°08' E 003°51'1210.8
2015-Feb-23 11:21N 42°56' E 003°58'1 1.4
2015-Feb-23 10:33N 42°56' E 003°59'4234.3
2015-Feb-23 09:19N 43°38' E 004°06'4151.8
2015-Feb-23 08:31N 42°57' E 004°11'2 1.7
2015-Feb-23 07:04N 42°59' E 004°12'33 3.4
2015-Feb-22 21:27N 43°24' E 003°42'  
Track history (hours):
 
Tides and Currents Weather Stations Pressure Air Temp Water Temp Dewpoint Dewpoint Depression Visibility Wind Speed Wind Dir Waves Ship Positions

F/V Roger Christian3

Last reported at 2015-Mar-03 12:31 UTC. Time now 2015-Mar-03 12:47 UTC.
Position N 43°24' E 003°42'.

Length 24 m; draft 4 m.

Type: Fishing. MMSI: 228173800.

Date/timePositionNaut miles runAvg speedWind from/ knotsBaromVisibWave heightAir tempDewpointWater temp
2015-Mar-03 12:31N 43°24' E 003°42'0 0.0
2015-Mar-03 11:26N 43°24' E 003°42'0 0.0
2015-Mar-03 09:25N 43°24' E 003°42'0 0.0
2015-Mar-03 08:18N 43°24' E 003°42'0 0.0
2015-Mar-02 18:17N 43°24' E 003°42'0 0.0
2015-Mar-02 07:16N 43°24' E 003°42'0 0.0
2015-Mar-02 06:25N 43°24' E 003°42'  
2015-Feb-27 16:28N 43°24' E 003°42'10 4.2
2015-Feb-27 14:13N 43°15' E 003°45'3 3.9
2015-Feb-27 13:28N 43°14' E 003°48'5 4.2
2015-Feb-27 12:13N 43°16' E 003°55'2 2.1
2015-Feb-27 11:26N 43°16' E 003°57'3 3.5
2015-Feb-27 10:28N 43°17' E 003°53'4 3.6
2015-Feb-27 09:28N 43°19' E 003°57'5 4.4
2015-Feb-27 08:26N 43°19' E 004°03'2 2.3
2015-Feb-27 07:28N 43°20' E 004°06'5 4.0
2015-Feb-27 06:14N 43°22' E 003°60'13 1.0
2015-Feb-26 17:11N 43°24' E 003°42'0 0.1
2015-Feb-26 16:12N 43°24' E 003°42'3 4.6
2015-Feb-26 15:32N 43°21' E 003°43'8 5.9
2015-Feb-26 14:10N 43°14' E 003°49'3 4.3
2015-Feb-26 13:22N 43°14' E 003°53'4 4.3
2015-Feb-26 12:25N 43°17' E 003°57'4 3.8
2015-Feb-26 11:19N 43°19' E 004°02'8 3.6
2015-Feb-26 09:07N 43°15' E 004°11'3 4.5
2015-Feb-26 08:24N 43°15' E 004°16'2 2.3
2015-Feb-26 07:24N 43°14' E 004°19'4 4.0
2015-Feb-26 06:21N 43°17' E 004°14'24 1.8
2015-Feb-25 16:26N 43°24' E 003°42'3 2.8
2015-Feb-25 15:25N 43°21' E 003°43'6 6.2
2015-Feb-25 14:23N 43°15' E 003°47'3 3.2
2015-Feb-25 13:19N 43°17' E 003°51'4 4.2
2015-Feb-25 12:16N 43°19' E 003°56'3 4.4
2015-Feb-25 11:33N 43°20' E 004°00'3 3.0
2015-Feb-25 10:25N 43°18' E 004°05'6 4.7
2015-Feb-25 09:13N 43°15' E 004°11'3 3.9
2015-Feb-25 08:21N 43°14' E 004°15'27 1.8
2015-Feb-24 17:25N 43°24' E 003°42'0 0.1
2015-Feb-24 16:28N 43°24' E 003°42'5 5.0
2015-Feb-24 15:28N 43°20' E 003°46'9 4.4
2015-Feb-24 13:24N 43°12' E 003°53'3 4.1
2015-Feb-24 12:33N 43°10' E 003°57'4 4.2
2015-Feb-24 11:33N 43°08' E 004°02'2 1.5
2015-Feb-24 10:30N 43°09' E 004°04'4 4.3
2015-Feb-24 09:29N 43°08' E 004°10'4 4.2
2015-Feb-24 08:29N 43°07' E 004°15'2 1.7
2015-Feb-24 07:29N 43°07' E 004°17'4 3.8
2015-Feb-24 06:29N 43°08' E 004°12'4 4.3
2015-Feb-24 05:29N 43°09' E 004°07'4 4.3
2015-Feb-24 04:29N 43°10' E 004°01'4 4.4
2015-Feb-24 03:33N 43°12' E 003°56'10 9.2
2015-Feb-24 02:31N 43°19' E 003°47'7 6.1
2015-Feb-24 01:28N 43°24' E 003°42'0 0.0
2015-Feb-24 00:09N 43°24' E 003°42'0 0.0
2015-Feb-23 23:27N 43°24' E 003°42'0 0.0
2015-Feb-23 22:12N 43°24' E 003°42'0 0.0
2015-Feb-23 21:28N 43°24' E 003°42'0 0.0
2015-Feb-23 16:04N 43°24' E 003°42'0 0.6
2015-Feb-23 15:33N 43°24' E 003°42'0 0.3
2015-Feb-23 14:11N 43°24' E 003°42'8 9.6
2015-Feb-23 13:20N 43°16' E 003°46'1011.1
2015-Feb-23 12:28N 43°08' E 003°51'1210.8
2015-Feb-23 11:21N 42°56' E 003°58'1 1.4
2015-Feb-23 10:33N 42°56' E 003°59'4234.3
2015-Feb-23 09:19N 43°38' E 004°06'4151.8
2015-Feb-23 08:31N 42°57' E 004°11'2 1.7
2015-Feb-23 07:04N 42°59' E 004°12'33 3.4
2015-Feb-22 21:27N 43°24' E 003°42'  

Dump ship's entire track history